Time;durP1;ratioP1;P1;durP2;ratioP2;P2;SDS_P1;SDS_P2;PMS_P1;PMS_P2;Temp;Humidity;BMP_temperature;BMP_pressure;BME280_temperature;BME280_humidity;BME280_pressure;Samples;Min_cycle;Max_cycle;Signal;HPM_P1;HPM_P2
2021/07/13 00:00:17;;;;;;;21.17;13.60;;;18.50;99.90;;;;;;5044024;28;20017;-74
2021/07/13 00:02:42;;;;;;;20.13;13.88;;;18.50;99.90;;;;;;5048531;28;20025;-73
2021/07/13 00:05:13;;;;;;;20.80;14.05;;;18.50;99.90;;;;;;5046954;28;20384;-73
2021/07/13 00:07:40;;;;;;;23.17;14.20;;;18.50;99.90;;;;;;5049230;28;20041;-73
2021/07/13 00:10:07;;;;;;;18.60;13.35;;;18.40;99.90;;;;;;5046538;28;20033;-74
2021/07/13 00:12:34;;;;;;;22.75;14.70;;;18.40;99.90;;;;;;5048795;28;20415;-74
2021/07/13 00:14:59;;;;;;;18.77;13.95;;;18.40;99.90;;;;;;5047455;28;20049;-74
2021/07/13 00:17:25;;;;;;;22.15;15.73;;;18.40;99.90;;;;;;5042658;28;20033;-73
2021/07/13 00:19:50;;;;;;;21.05;13.35;;;18.30;99.90;;;;;;5047570;28;20025;-73
2021/07/13 00:22:16;;;;;;;24.92;14.77;;;18.40;99.90;;;;;;5047193;28;20106;-74
2021/07/13 00:24:42;;;;;;;23.85;13.88;;;18.30;99.90;;;;;;5047408;28;20476;-74
2021/07/13 00:27:08;;;;;;;20.50;14.45;;;18.30;99.90;;;;;;5041301;28;20239;-74
2021/07/13 00:29:36;;;;;;;17.70;12.57;;;18.30;99.90;;;;;;5042723;28;20036;-73
2021/07/13 00:32:02;;;;;;;17.25;12.80;;;18.30;99.90;;;;;;5045634;28;20036;-74
2021/07/13 00:34:27;;;;;;;16.98;13.07;;;18.30;99.90;;;;;;5039435;28;20459;-73
2021/07/13 00:36:53;;;;;;;18.40;13.07;;;18.30;99.90;;;;;;5046993;28;20500;-74
2021/07/13 00:39:18;;;;;;;16.50;12.02;;;18.30;99.90;;;;;;5042669;28;20017;-73
2021/07/13 00:41:44;;;;;;;17.70;12.77;;;18.20;99.90;;;;;;5049159;28;20017;-73
2021/07/13 00:44:09;;;;;;;22.95;13.02;;;18.20;99.90;;;;;;5045932;28;20079;-74
2021/07/13 00:46:46;;;;;;;15.90;12.75;;;18.20;99.90;;;;;;5048139;28;20033;-73
2021/07/13 00:49:13;;;;;;;20.40;12.77;;;18.20;99.90;;;;;;5046188;28;20033;-74
2021/07/13 00:51:39;;;;;;;17.77;12.35;;;18.20;99.90;;;;;;5048612;28;20386;-74
2021/07/13 00:54:07;;;;;;;18.27;12.52;;;18.10;99.90;;;;;;5038858;28;20033;-74
2021/07/13 00:56:37;;;;;;;15.85;11.73;;;18.10;99.90;;;;;;5047541;28;20060;-73
2021/07/13 00:59:03;;;;;;;16.42;11.98;;;18.10;99.90;;;;;;5047504;28;20029;-73
2021/07/13 01:01:30;;;;;;;17.42;12.65;;;18.10;99.90;;;;;;5038596;28;20026;-73
2021/07/13 01:03:56;;;;;;;23.02;13.77;;;18.00;99.90;;;;;;5042107;28;20029;-74
2021/07/13 01:06:22;;;;;;;19.08;12.32;;;18.00;99.90;;;;;;5052817;28;20107;-74
2021/07/13 01:09:02;;;;;;;19.63;12.75;;;18.00;99.90;;;;;;5044524;28;20029;-74
2021/07/13 01:11:34;;;;;;;15.05;11.80;;;18.00;99.90;;;;;;5033782;28;20068;-74
2021/07/13 01:14:08;;;;;;;18.65;12.18;;;18.00;99.90;;;;;;5044018;28;20037;-74
2021/07/13 01:16:45;;;;;;;22.08;11.60;;;18.00;99.90;;;;;;5050266;28;20064;-74
2021/07/13 01:19:29;;;;;;;16.40;12.48;;;17.90;99.90;;;;;;5050107;28;20466;-74
2021/07/13 01:21:58;;;;;;;20.45;12.65;;;17.90;99.90;;;;;;5050781;28;20104;-74
2021/07/13 01:25:07;;;;;;;18.05;12.05;;;17.90;99.90;;;;;;5053618;28;20028;-74
2021/07/13 01:27:47;;;;;;;19.08;12.70;;;17.90;99.90;;;;;;5044700;28;20364;-74
2021/07/13 01:30:20;;;;;;;16.35;12.10;;;17.90;99.90;;;;;;5050793;28;20041;-74
2021/07/13 01:32:50;;;;;;;20.10;12.50;;;17.90;99.90;;;;;;5050811;28;20065;-73
2021/07/13 01:35:27;;;;;;;16.77;12.10;;;17.90;99.90;;;;;;5050391;28;20471;-74
2021/07/13 01:37:54;;;;;;;17.60;12.18;;;17.80;99.90;;;;;;5048641;28;20033;-74
2021/07/13 01:40:23;;;;;;;16.48;12.05;;;17.80;99.90;;;;;;5051209;28;20687;-74
2021/07/13 01:42:49;;;;;;;15.63;12.45;;;17.80;99.90;;;;;;5050596;28;20104;-74
2021/07/13 01:45:16;;;;;;;17.00;12.20;;;17.80;99.90;;;;;;5045425;28;20112;-74
2021/07/13 01:47:42;;;;;;;20.38;12.90;;;17.80;99.90;;;;;;5045470;28;20092;-74
2021/07/13 01:50:10;;;;;;;18.75;12.77;;;17.80;99.90;;;;;;5051303;28;20124;-74
2021/07/13 01:52:38;;;;;;;18.95;12.75;;;17.70;99.90;;;;;;5049980;28;20053;-75
2021/07/13 01:55:05;;;;;;;21.15;12.40;;;17.70;99.90;;;;;;5050783;28;20048;-74
2021/07/13 01:57:32;;;;;;;16.15;11.60;;;17.70;99.90;;;;;;5043961;28;20040;-74
2021/07/13 02:00:00;;;;;;;16.35;11.40;;;17.70;99.90;;;;;;5040647;28;20033;-73
2021/07/13 02:02:28;;;;;;;17.25;12.65;;;17.70;99.90;;;;;;5048102;28;20115;-73
2021/07/13 02:04:56;;;;;;;15.90;12.00;;;17.60;99.90;;;;;;5049850;28;20074;-74
2021/07/13 02:07:23;;;;;;;16.10;11.02;;;17.60;99.90;;;;;;5048050;28;20036;-74
2021/07/13 02:09:48;;;;;;;16.40;11.77;;;17.60;99.90;;;;;;5046283;28;20025;-74
2021/07/13 02:12:14;;;;;;;18.00;11.70;;;17.60;99.90;;;;;;5049409;28;20036;-74
2021/07/13 02:14:40;;;;;;;16.88;12.13;;;17.60;99.90;;;;;;5051091;28;20443;-74
2021/07/13 02:17:06;;;;;;;19.75;11.32;;;17.60;99.90;;;;;;5045058;28;20033;-74
2021/07/13 02:19:31;;;;;;;15.70;11.50;;;17.60;99.90;;;;;;5044050;28;20029;-74
2021/07/13 02:21:57;;;;;;;16.38;11.90;;;17.50;99.90;;;;;;5047671;28;20021;-74
2021/07/13 02:24:23;;;;;;;17.35;11.75;;;17.50;99.90;;;;;;5046285;28;20178;-74
2021/07/13 02:27:06;;;;;;;14.85;11.52;;;17.50;99.90;;;;;;5048748;28;20497;-73
2021/07/13 02:29:55;;;;;;;16.85;12.18;;;17.50;99.90;;;;;;5049736;28;20036;-73
2021/07/13 02:32:42;;;;;;;16.02;11.77;;;17.50;99.90;;;;;;5049642;28;20036;-74
2021/07/13 02:35:10;;;;;;;14.63;11.25;;;17.50;99.90;;;;;;5049831;28;20036;-74
2021/07/13 02:37:38;;;;;;;16.83;11.70;;;17.50;99.90;;;;;;5044312;28;20032;-74
2021/07/13 02:40:09;;;;;;;14.75;11.55;;;17.50;99.90;;;;;;5049758;28;20479;-74
2021/07/13 02:42:35;;;;;;;14.65;12.23;;;17.40;99.90;;;;;;5049435;28;20549;-74
2021/07/13 02:45:02;;;;;;;16.63;12.48;;;17.40;99.90;;;;;;5046497;28;20033;-74
2021/07/13 02:47:30;;;;;;;19.95;11.98;;;17.40;99.90;;;;;;5053924;28;20036;-74
2021/07/13 02:49:56;;;;;;;17.30;11.30;;;17.40;99.90;;;;;;5039535;28;20150;-73
2021/07/13 02:52:25;;;;;;;17.55;12.27;;;17.40;99.90;;;;;;5048366;28;20440;-74
2021/07/13 02:55:03;;;;;;;16.42;11.70;;;17.40;99.90;;;;;;5048065;28;20071;-74
2021/07/13 02:57:30;;;;;;;18.55;13.18;;;17.30;99.90;;;;;;5044305;28;20249;-73
2021/07/13 02:59:57;;;;;;;16.52;11.80;;;17.30;99.90;;;;;;5050052;28;20028;-74
2021/07/13 03:02:24;;;;;;;15.65;11.93;;;17.40;99.90;;;;;;5049563;28;20079;-74
2021/07/13 03:04:50;;;;;;;15.35;11.60;;;17.40;99.90;;;;;;5043507;28;20025;-74
2021/07/13 03:07:18;;;;;;;18.70;12.45;;;17.30;99.90;;;;;;5048367;28;20029;-74
2021/07/13 03:09:44;;;;;;;17.10;12.27;;;17.30;99.90;;;;;;5044739;28;20056;-74
2021/07/13 03:12:10;;;;;;;16.85;11.63;;;17.40;99.90;;;;;;5050034;28;20057;-74
2021/07/13 03:14:41;;;;;;;16.58;11.93;;;17.40;99.90;;;;;;5037509;28;20069;-74
2021/07/13 03:17:08;;;;;;;21.67;12.50;;;17.30;99.90;;;;;;5049494;28;20033;-73
2021/07/13 03:19:34;;;;;;;12.85;10.65;;;17.40;99.90;;;;;;5045343;28;20778;-73
2021/07/13 03:22:01;;;;;;;16.33;11.38;;;17.30;99.90;;;;;;5049954;28;20033;-74
2021/07/13 03:24:28;;;;;;;17.15;12.13;;;17.40;99.90;;;;;;5042864;28;20033;-74
2021/07/13 03:26:56;;;;;;;17.38;12.48;;;17.40;99.90;;;;;;5044425;28;20094;-74
2021/07/13 03:29:23;;;;;;;15.52;12.25;;;17.40;99.90;;;;;;5047227;28;20029;-74
2021/07/13 03:31:49;;;;;;;16.08;12.18;;;17.40;99.90;;;;;;5048921;28;20025;-74
2021/07/13 03:34:15;;;;;;;17.45;11.52;;;17.40;99.90;;;;;;5048193;28;20086;-73
2021/07/13 03:36:41;;;;;;;18.05;11.48;;;17.40;99.90;;;;;;5043620;28;20128;-74
2021/07/13 03:39:08;;;;;;;15.60;11.95;;;17.40;99.90;;;;;;5049210;28;20028;-74
2021/07/13 03:41:34;;;;;;;15.77;12.32;;;17.40;99.90;;;;;;5042938;28;20029;-74
2021/07/13 03:44:02;;;;;;;16.15;11.30;;;17.40;99.90;;;;;;5049185;28;20072;-74
2021/07/13 03:46:31;;;;;;;16.92;12.25;;;17.50;99.90;;;;;;5037756;28;20120;-74
2021/07/13 03:48:57;;;;;;;17.35;12.13;;;17.50;99.90;;;;;;5049718;28;20534;-74
2021/07/13 03:51:39;;;;;;;18.70;12.45;;;17.50;99.90;;;;;;5047812;28;20037;-74
2021/07/13 03:54:04;;;;;;;16.35;12.35;;;17.50;99.90;;;;;;5045241;28;20122;-73
2021/07/13 03:56:30;;;;;;;18.45;12.93;;;17.50;99.90;;;;;;5045350;28;20068;-74
2021/07/13 03:58:56;;;;;;;15.77;12.40;;;17.50;99.90;;;;;;5045455;28;20107;-74
2021/07/13 04:01:22;;;;;;;16.70;11.50;;;17.60;99.90;;;;;;5042760;28;20033;-74
2021/07/13 04:03:48;;;;;;;16.60;12.13;;;17.60;99.90;;;;;;5049202;28;20035;-74
2021/07/13 04:06:13;;;;;;;16.92;12.38;;;17.60;99.90;;;;;;5041275;28;20025;-74
2021/07/13 04:08:39;;;;;;;17.15;12.60;;;17.60;99.90;;;;;;5046871;28;20036;-74
2021/07/13 04:11:04;;;;;;;17.42;12.50;;;17.60;99.90;;;;;;5049055;28;20505;-74
2021/07/13 04:13:30;;;;;;;18.38;12.52;;;17.70;99.90;;;;;;5048050;28;20048;-73
2021/07/13 04:15:55;;;;;;;16.80;12.23;;;17.70;99.90;;;;;;5043865;28;20052;-74
2021/07/13 04:18:21;;;;;;;15.98;12.55;;;17.70;99.90;;;;;;5043141;28;20016;-74
2021/07/13 04:20:46;;;;;;;19.73;12.48;;;17.80;99.90;;;;;;5048723;28;20121;-74
2021/07/13 04:23:12;;;;;;;17.65;12.85;;;17.80;99.90;;;;;;5042850;28;20025;-74
2021/07/13 04:25:37;;;;;;;18.30;13.07;;;17.80;99.90;;;;;;5047611;28;20061;-74
2021/07/13 04:28:03;;;;;;;15.68;12.32;;;17.80;99.90;;;;;;5047258;28;20483;-74
2021/07/13 04:30:28;;;;;;;19.92;12.30;;;17.80;99.90;;;;;;5047328;28;20032;-74
2021/07/13 04:32:54;;;;;;;16.33;12.30;;;17.90;99.90;;;;;;5048511;28;20028;-74
2021/07/13 04:35:19;;;;;;;16.77;12.40;;;17.90;99.90;;;;;;5046244;28;20563;-74
2021/07/13 04:37:45;;;;;;;17.27;12.05;;;17.90;99.90;;;;;;5047495;28;20025;-74
2021/07/13 04:40:11;;;;;;;17.08;11.90;;;17.90;99.90;;;;;;5042716;28;20032;-74
2021/07/13 04:42:37;;;;;;;19.27;12.13;;;18.00;99.90;;;;;;5047233;28;20036;-74
2021/07/13 04:45:02;;;;;;;18.60;12.38;;;18.00;99.90;;;;;;5043319;28;20487;-75
2021/07/13 04:47:28;;;;;;;19.00;11.85;;;18.00;99.90;;;;;;5047436;28;20029;-74
2021/07/13 04:49:53;;;;;;;17.00;11.48;;;18.10;99.90;;;;;;5047948;28;20511;-74
2021/07/13 04:52:19;;;;;;;17.92;12.18;;;18.10;99.90;;;;;;5049522;28;20033;-75
2021/07/13 04:54:45;;;;;;;16.23;11.13;;;18.10;99.90;;;;;;5053194;28;20092;-75
2021/07/13 04:57:11;;;;;;;18.70;11.35;;;18.20;99.90;;;;;;5049830;28;20025;-75
2021/07/13 04:59:36;;;;;;;14.82;11.35;;;18.30;99.90;;;;;;5052677;28;20476;-75
2021/07/13 05:02:02;;;;;;;15.45;11.20;;;18.30;99.90;;;;;;5047169;28;20032;-74
2021/07/13 05:04:28;;;;;;;15.32;11.35;;;18.30;99.90;;;;;;5051365;28;20037;-73
2021/07/13 05:06:53;;;;;;;15.07;10.95;;;18.40;99.90;;;;;;5051901;28;20506;-73
2021/07/13 05:09:19;;;;;;;16.48;11.20;;;18.40;99.90;;;;;;5047837;28;20064;-74
2021/07/13 05:11:45;;;;;;;15.88;11.15;;;18.40;99.90;;;;;;5043723;28;20100;-73
2021/07/13 05:14:10;;;;;;;14.10;11.63;;;18.50;99.90;;;;;;5046536;28;20100;-73
2021/07/13 05:16:35;;;;;;;19.92;11.90;;;18.50;99.90;;;;;;5049780;28;20088;-73
2021/07/13 05:19:01;;;;;;;19.23;11.88;;;18.60;99.90;;;;;;5050095;28;20037;-73
2021/07/13 05:21:27;;;;;;;17.25;11.43;;;18.60;99.90;;;;;;5051062;28;20025;-74
2021/07/13 05:23:53;;;;;;;15.75;10.82;;;18.70;99.90;;;;;;5049359;28;20478;-73
2021/07/13 05:26:18;;;;;;;19.00;11.07;;;18.70;99.90;;;;;;5051836;28;20021;-75
2021/07/13 05:28:46;;;;;;;15.15;10.95;;;18.70;99.90;;;;;;5041000;28;20025;-74
2021/07/13 05:31:12;;;;;;;14.43;11.20;;;18.80;99.90;;;;;;5048712;28;20044;-73
2021/07/13 05:33:37;;;;;;;12.70;10.20;;;18.80;99.90;;;;;;5049640;28;20388;-74
2021/07/13 05:36:03;;;;;;;18.70;11.25;;;18.90;99.90;;;;;;5049275;28;20055;-74
2021/07/13 05:38:28;;;;;;;16.92;10.45;;;18.90;99.90;;;;;;5047905;28;20037;-74
2021/07/13 05:40:54;;;;;;;16.65;10.52;;;19.00;99.90;;;;;;5046536;28;20053;-74
2021/07/13 05:43:19;;;;;;;17.20;10.57;;;19.00;99.90;;;;;;5051317;28;20025;-74
2021/07/13 05:45:45;;;;;;;16.52;10.73;;;19.10;99.90;;;;;;5045947;28;20433;-74
2021/07/13 05:48:11;;;;;;;14.23;10.50;;;19.10;99.90;;;;;;5043843;28;20071;-74
2021/07/13 05:50:37;;;;;;;19.98;10.35;;;19.10;99.90;;;;;;5049501;28;20507;-74
2021/07/13 05:53:03;;;;;;;18.58;10.80;;;19.20;99.90;;;;;;5051996;28;20097;-74
2021/07/13 05:55:29;;;;;;;14.52;10.25;;;19.20;99.90;;;;;;5051138;28;20032;-75
2021/07/13 05:57:55;;;;;;;13.68;10.27;;;19.30;99.90;;;;;;5049949;28;20028;-74
2021/07/13 06:00:21;;;;;;;15.10;9.55;;;19.30;99.90;;;;;;5047519;28;20075;-74
2021/07/13 06:02:55;;;;;;;15.73;9.82;;;19.40;99.90;;;;;;5048954;28;20040;-74
2021/07/13 06:05:20;;;;;;;14.40;9.85;;;19.40;99.90;;;;;;5050166;28;20029;-74
2021/07/13 06:07:48;;;;;;;13.55;10.10;;;19.40;99.90;;;;;;5047516;28;20036;-74
2021/07/13 06:10:15;;;;;;;12.90;9.57;;;19.50;99.90;;;;;;5045921;28;20029;-74
2021/07/13 06:12:41;;;;;;;12.75;9.10;;;19.60;99.90;;;;;;5037446;28;20060;-74
2021/07/13 06:15:08;;;;;;;15.05;9.68;;;19.60;99.90;;;;;;5048170;28;20513;-73
2021/07/13 06:17:34;;;;;;;13.98;7.97;;;19.70;99.90;;;;;;5041418;28;20060;-74
2021/07/13 06:20:00;;;;;;;13.25;8.85;;;19.70;99.90;;;;;;5047217;28;20025;-74
2021/07/13 06:22:25;;;;;;;18.92;9.40;;;19.80;99.90;;;;;;5047081;28;20029;-74
2021/07/13 06:24:51;;;;;;;11.32;8.55;;;19.90;99.90;;;;;;5046266;28;20043;-74
2021/07/13 06:27:16;;;;;;;15.05;8.85;;;19.90;99.90;;;;;;5043731;28;20044;-74
2021/07/13 06:29:42;;;;;;;10.75;8.15;;;20.00;99.90;;;;;;5046917;28;20033;-74
2021/07/13 06:32:07;;;;;;;13.20;8.30;;;20.10;99.90;;;;;;5049076;28;20245;-75
2021/07/13 06:34:33;;;;;;;10.32;7.78;;;20.10;99.90;;;;;;5045435;28;20037;-74
2021/07/13 06:36:59;;;;;;;11.32;8.02;;;20.20;99.90;;;;;;5051433;28;20033;-75
2021/07/13 06:39:24;;;;;;;12.73;8.15;;;20.20;99.90;;;;;;5045063;28;20033;-75
2021/07/13 06:41:49;;;;;;;10.05;7.97;;;20.30;99.90;;;;;;5048872;28;20430;-75
2021/07/13 06:44:15;;;;;;;12.13;7.90;;;20.40;99.90;;;;;;5051156;28;20078;-76
2021/07/13 06:46:40;;;;;;;9.18;7.20;;;20.40;99.90;;;;;;5050662;28;20115;-76
2021/07/13 06:49:06;;;;;;;10.88;7.63;;;20.50;99.90;;;;;;5045635;28;20025;-76
2021/07/13 06:51:31;;;;;;;10.98;7.07;;;20.60;99.90;;;;;;5049365;28;20797;-76
2021/07/13 06:53:57;;;;;;;9.68;6.97;;;20.70;99.90;;;;;;5049501;28;20029;-76
2021/07/13 06:56:22;;;;;;;7.60;5.63;;;20.80;99.90;;;;;;5050044;28;20031;-75
2021/07/13 06:58:48;;;;;;;6.10;5.20;;;20.80;99.90;;;;;;5047774;28;20044;-76
2021/07/13 07:01:13;;;;;;;10.50;6.30;;;20.90;99.90;;;;;;5044281;28;20105;-75
2021/07/13 07:03:39;;;;;;;7.18;6.15;;;21.00;99.90;;;;;;5048270;28;20029;-75
2021/07/13 07:06:04;;;;;;;9.52;6.82;;;21.00;99.90;;;;;;5038216;28;20017;-75
2021/07/13 07:08:30;;;;;;;8.55;6.13;;;21.10;99.90;;;;;;5049187;28;20059;-76
2021/07/13 07:10:55;;;;;;;9.57;6.07;;;21.20;99.90;;;;;;5047800;28;20047;-76
2021/07/13 07:13:21;;;;;;;13.85;5.80;;;21.30;99.90;;;;;;5047155;28;20029;-75
2021/07/13 07:15:46;;;;;;;7.03;5.60;;;21.30;99.90;;;;;;5042684;28;20033;-76
2021/07/13 07:18:12;;;;;;;7.32;5.25;;;21.40;99.90;;;;;;5043551;28;20022;-76
2021/07/13 07:20:37;;;;;;;8.95;5.88;;;21.40;99.90;;;;;;5049358;28;20024;-76
2021/07/13 07:23:03;;;;;;;8.25;6.32;;;21.50;99.90;;;;;;5047697;28;20029;-75
2021/07/13 07:25:30;;;;;;;11.05;6.75;;;21.50;99.90;;;;;;5044743;28;20022;-76
2021/07/13 07:27:57;;;;;;;6.70;5.25;;;21.60;99.90;;;;;;5040889;28;20491;-76
2021/07/13 07:30:24;;;;;;;9.30;6.30;;;21.70;99.90;;;;;;5044734;28;20502;-74
2021/07/13 07:32:49;;;;;;;8.75;6.15;;;21.70;99.90;;;;;;5047014;28;20313;-75
2021/07/13 07:35:15;;;;;;;8.38;5.60;;;21.80;99.90;;;;;;5048801;28;20386;-74
2021/07/13 07:37:42;;;;;;;6.85;5.28;;;21.80;99.90;;;;;;5044818;28;20029;-74
2021/07/13 07:40:10;;;;;;;7.82;6.40;;;21.90;99.90;;;;;;5048859;28;20086;-73
2021/07/13 07:42:37;;;;;;;6.00;5.05;;;21.90;99.90;;;;;;5046122;28;20025;-74
2021/07/13 07:45:04;;;;;;;8.23;5.97;;;22.00;99.90;;;;;;5040557;28;20492;-72
2021/07/13 07:47:29;;;;;;;8.82;5.10;;;22.10;99.90;;;;;;5034770;28;20038;-72
2021/07/13 07:49:55;;;;;;;10.25;6.45;;;22.20;99.90;;;;;;5040665;28;20031;-73
2021/07/13 07:52:20;;;;;;;8.50;5.65;;;22.30;99.90;;;;;;5043309;28;20029;-71
2021/07/13 07:54:46;;;;;;;5.75;5.15;;;22.30;99.90;;;;;;5045509;28;20029;-75
2021/07/13 07:57:11;;;;;;;7.20;5.30;;;22.40;99.90;;;;;;5049280;28;20021;-75
2021/07/13 07:59:37;;;;;;;9.45;5.93;;;22.50;99.90;;;;;;5044403;28;20086;-74
2021/07/13 08:02:02;;;;;;;7.25;5.47;;;22.50;99.90;;;;;;5043970;28;20021;-74
2021/07/13 08:04:28;;;;;;;7.88;5.88;;;22.60;99.90;;;;;;5046421;28;20083;-75
2021/07/13 08:06:54;;;;;;;6.18;4.68;;;22.60;99.90;;;;;;5046723;28;20028;-74
2021/07/13 08:09:19;;;;;;;5.57;4.30;;;22.60;99.90;;;;;;5045708;28;20025;-76
2021/07/13 08:11:45;;;;;;;7.00;4.72;;;22.70;99.90;;;;;;5046108;28;20030;-75
2021/07/13 08:14:11;;;;;;;5.90;4.95;;;22.80;99.90;;;;;;5038016;28;20032;-76
2021/07/13 08:16:37;;;;;;;7.40;4.40;;;22.90;99.90;;;;;;5044282;28;20044;-75
2021/07/13 08:19:06;;;;;;;6.85;5.30;;;22.90;99.90;;;;;;5045443;28;20129;-75
2021/07/13 08:21:32;;;;;;;9.27;4.68;;;23.00;99.90;;;;;;5042658;28;20030;-74
2021/07/13 08:23:58;;;;;;;6.30;4.90;;;23.00;99.90;;;;;;5046085;28;20148;-75
2021/07/13 08:26:25;;;;;;;6.13;4.82;;;23.10;99.90;;;;;;5043976;28;20037;-76
2021/07/13 08:28:50;;;;;;;5.97;4.55;;;23.10;99.90;;;;;;5048659;28;20043;-76
2021/07/13 08:31:16;;;;;;;5.45;4.47;;;23.20;99.90;;;;;;5043596;28;20151;-76
2021/07/13 08:33:41;;;;;;;5.82;4.43;;;23.20;99.90;;;;;;5035624;28;20025;-75
2021/07/13 08:36:08;;;;;;;6.60;4.35;;;23.30;99.90;;;;;;5036194;28;20506;-74
2021/07/13 08:38:33;;;;;;;6.20;4.88;;;23.40;99.90;;;;;;5048990;28;20033;-75
2021/07/13 08:40:59;;;;;;;13.77;5.32;;;23.60;99.90;;;;;;5044410;28;20025;-74
2021/07/13 08:43:26;;;;;;;5.18;4.50;;;23.70;99.90;;;;;;5045363;28;20095;-75
2021/07/13 08:45:52;;;;;;;4.63;3.78;;;23.80;99.90;;;;;;5041024;28;20014;-74
2021/07/13 08:48:20;;;;;;;7.00;4.07;;;23.90;99.70;;;;;;5047491;28;20033;-76
2021/07/13 08:50:46;;;;;;;6.50;4.47;;;24.00;99.80;;;;;;5043371;28;20040;-75
2021/07/13 08:53:11;;;;;;;5.15;4.43;;;24.10;99.90;;;;;;5045555;28;20066;-75
2021/07/13 08:55:37;;;;;;;7.40;5.53;;;24.10;99.90;;;;;;5042684;28;20034;-75
2021/07/13 08:58:02;;;;;;;5.05;4.40;;;24.10;99.90;;;;;;5048293;28;20021;-75
2021/07/13 09:00:28;;;;;;;4.55;3.83;;;24.10;99.90;;;;;;5041588;28;20057;-75
2021/07/13 09:03:04;;;;;;;4.50;3.80;;;24.30;98.40;;;;;;5046875;28;20028;-74
2021/07/13 09:05:43;;;;;;;3.95;3.50;;;24.50;98.30;;;;;;5044801;28;20034;-75
2021/07/13 09:08:17;;;;;;;7.18;4.05;;;24.60;97.30;;;;;;5047694;28;20054;-75
2021/07/13 09:11:03;;;;;;;7.75;3.95;;;24.50;96.50;;;;;;5045689;28;20044;-79
2021/07/13 09:13:31;;;;;;;9.32;3.92;;;24.50;98.80;;;;;;5039485;28;20361;-75
2021/07/13 09:16:01;;;;;;;6.22;3.60;;;24.60;97.30;;;;;;5035421;28;20052;-75
2021/07/13 09:18:54;;;;;;;5.22;4.00;;;24.70;95.20;;;;;;5043619;28;20048;-74
2021/07/13 09:21:33;;;;;;;5.75;4.63;;;24.90;94.00;;;;;;5039758;28;20129;-73
2021/07/13 09:24:21;;;;;;;5.63;4.40;;;25.10;92.50;;;;;;5039706;28;20028;-73
2021/07/13 09:26:57;;;;;;;6.80;4.68;;;25.20;93.20;;;;;;5046293;28;20025;-75
2021/07/13 09:29:42;;;;;;;7.45;5.68;;;25.20;91.40;;;;;;5044372;28;20496;-73
2021/07/13 09:32:32;;;;;;;7.82;4.05;;;25.20;92.40;;;;;;5040470;28;20044;-72
2021/07/13 09:35:06;;;;;;;12.40;6.60;;;25.30;92.00;;;;;;5044763;28;20025;-79
2021/07/13 09:37:55;;;;;;;28.13;10.75;;;25.40;91.90;;;;;;5051440;28;20033;-74
2021/07/13 09:40:20;;;;;;;15.20;6.90;;;25.60;92.00;;;;;;5045729;28;20124;-74
2021/07/13 09:42:48;;;;;;;4.40;3.45;;;25.70;92.50;;;;;;5052188;28;20109;-74
2021/07/13 09:45:34;;;;;;;6.03;4.22;;;25.80;87.40;;;;;;5049733;28;20074;-73
2021/07/13 09:48:08;;;;;;;4.63;3.72;;;25.80;85.30;;;;;;5051630;28;20161;-74
2021/07/13 09:50:46;;;;;;;5.30;4.28;;;25.80;82.10;;;;;;5047568;28;20032;-74
2021/07/13 09:53:17;;;;;;;7.25;5.30;;;25.70;89.70;;;;;;5041093;28;20491;-77
2021/07/13 09:55:44;;;;;;;5.13;3.78;;;25.90;90.70;;;;;;5054681;28;20120;-73
2021/07/13 09:58:21;;;;;;;5.53;3.22;;;26.00;90.50;;;;;;5050520;28;20502;-75
2021/07/13 10:00:49;;;;;;;3.33;3.03;;;26.10;85.90;;;;;;5049809;28;20021;-76
2021/07/13 10:03:16;;;;;;;7.82;3.47;;;26.30;86.30;;;;;;5044628;28;20543;-76
2021/07/13 10:05:44;;;;;;;4.70;3.42;;;26.30;86.30;;;;;;5043617;28;20036;-76
2021/07/13 10:08:12;;;;;;;5.47;4.03;;;26.30;85.70;;;;;;5046091;28;20604;-77
2021/07/13 10:10:40;;;;;;;4.25;3.28;;;26.30;83.60;;;;;;5049044;28;20029;-76
2021/07/13 10:13:06;;;;;;;11.63;4.70;;;26.30;86.70;;;;;;5036317;28;20037;-77
2021/07/13 10:15:35;;;;;;;6.05;3.20;;;26.20;86.70;;;;;;5046706;28;20110;-75
2021/07/13 10:18:05;;;;;;;7.03;3.60;;;26.00;90.10;;;;;;5040464;28;20039;-76
2021/07/13 10:20:32;;;;;;;4.20;3.40;;;26.00;89.60;;;;;;5050629;28;20032;-76
2021/07/13 10:23:00;;;;;;;7.40;3.38;;;26.20;91.00;;;;;;5040761;28;20086;-76
2021/07/13 10:25:44;;;;;;;4.50;2.97;;;26.40;85.30;;;;;;5049408;28;20040;-77
2021/07/13 10:28:12;;;;;;;13.50;4.07;;;26.60;85.40;;;;;;5047137;28;20251;-76
2021/07/13 10:30:46;;;;;;;4.82;3.67;;;26.50;85.20;;;;;;5045128;28;20036;-76
2021/07/13 10:33:27;;;;;;;3.90;3.50;;;26.30;85.30;;;;;;5048791;28;20090;-74
2021/07/13 10:35:53;;;;;;;3.60;3.30;;;26.10;90.20;;;;;;5046347;28;20108;-75
2021/07/13 10:38:25;;;;;;;4.80;3.40;;;26.20;85.60;;;;;;5046873;28;20116;-74
2021/07/13 10:40:57;;;;;;;7.53;3.40;;;26.30;88.80;;;;;;5044538;28;20084;-74
2021/07/13 10:43:34;;;;;;;3.85;3.50;;;26.10;89.40;;;;;;5052507;28;20038;-74
2021/07/13 10:46:08;;;;;;;7.95;3.33;;;26.10;91.00;;;;;;5047248;28;20051;-74
2021/07/13 10:48:33;;;;;;;3.67;3.30;;;26.40;91.00;;;;;;5047546;28;20033;-73
2021/07/13 10:51:06;;;;;;;3.88;3.10;;;26.80;91.70;;;;;;5048715;28;20501;-73
2021/07/13 10:53:45;;;;;;;3.38;3.00;;;27.10;91.20;;;;;;5047984;28;20063;-73
2021/07/13 10:56:27;;;;;;;3.90;3.42;;;27.40;90.50;;;;;;5042774;28;20064;-73
2021/07/13 10:58:56;;;;;;;2.97;2.70;;;27.60;90.20;;;;;;5045543;28;20444;-73
2021/07/13 11:01:35;;;;;;;2.75;2.55;;;27.80;75.60;;;;;;5056819;28;20096;-73
2021/07/13 11:04:06;;;;;;;4.88;3.00;;;27.70;73.00;;;;;;5050653;28;20025;-73
2021/07/13 11:06:39;;;;;;;4.20;2.90;;;27.80;73.60;;;;;;5043305;28;20048;-73
2021/07/13 11:09:17;;;;;;;7.03;2.70;;;28.10;77.30;;;;;;5047474;28;20025;-73
2021/07/13 11:11:49;;;;;;;2.53;2.33;;;28.40;78.30;;;;;;5040353;28;20033;-73
2021/07/13 11:14:15;;;;;;;4.35;2.70;;;28.60;77.90;;;;;;5048971;28;20075;-73
2021/07/13 11:16:42;;;;;;;2.65;2.45;;;28.80;74.30;;;;;;5046505;28;20044;-75
2021/07/13 11:19:15;;;;;;;3.00;2.70;;;28.90;68.50;;;;;;5048860;28;20056;-75
2021/07/13 11:21:42;;;;;;;2.88;2.58;;;28.60;69.30;;;;;;5050560;28;20842;-74
2021/07/13 11:24:19;;;;;;;4.82;2.67;;;28.50;72.60;;;;;;5044431;28;20024;-74
2021/07/13 11:26:47;;;;;;;2.47;2.20;;;28.30;69.10;;;;;;5045581;28;20056;-74
2021/07/13 11:29:24;;;;;;;2.60;2.40;;;28.20;70.00;;;;;;5050549;28;20430;-75
2021/07/13 11:31:59;;;;;;;4.80;2.55;;;28.10;69.40;;;;;;5041176;28;20033;-74
2021/07/13 11:34:30;;;;;;;4.38;2.50;;;27.90;70.60;;;;;;5043407;28;20048;-74
2021/07/13 11:36:56;;;;;;;3.05;2.58;;;28.00;69.40;;;;;;5038369;28;20068;-74
2021/07/13 11:39:32;;;;;;;2.65;2.45;;;28.30;69.90;;;;;;5049572;28;20118;-75
2021/07/13 11:42:02;;;;;;;3.55;2.67;;;28.40;68.40;;;;;;5041224;28;20025;-74
2021/07/13 11:44:28;;;;;;;5.15;2.42;;;28.30;68.30;;;;;;5044209;28;20112;-74
2021/07/13 11:46:54;;;;;;;3.60;2.92;;;28.40;69.50;;;;;;5047122;28;20464;-74
2021/07/13 11:49:23;;;;;;;3.08;2.70;;;28.60;68.70;;;;;;5048274;28;20037;-74
2021/07/13 11:51:57;;;;;;;3.28;2.65;;;29.00;68.10;;;;;;5040647;28;20658;-74
2021/07/13 11:54:25;;;;;;;4.75;2.67;;;29.20;68.70;;;;;;5048224;28;20029;-74
2021/07/13 11:56:59;;;;;;;3.17;2.88;;;29.30;66.40;;;;;;5041552;28;20044;-75
2021/07/13 11:59:28;;;;;;;4.28;2.95;;;29.40;64.70;;;;;;5047652;28;20037;-74
2021/07/13 12:01:57;;;;;;;2.88;2.63;;;30.20;64.50;;;;;;5040572;28;20029;-75
2021/07/13 12:04:25;;;;;;;3.10;2.80;;;30.70;60.20;;;;;;5048887;28;20048;-75
2021/07/13 12:06:53;;;;;;;3.05;2.55;;;31.30;61.90;;;;;;5036709;28;20033;-75
2021/07/13 12:09:26;;;;;;;2.90;2.50;;;31.70;56.70;;;;;;5043202;28;20504;-72
2021/07/13 12:11:53;;;;;;;3.00;2.70;;;31.50;56.30;;;;;;5048997;28;20029;-72
2021/07/13 12:14:20;;;;;;;2.78;2.58;;;30.70;57.10;;;;;;5040146;28;20029;-75
2021/07/13 12:16:45;;;;;;;3.53;3.22;;;30.50;59.40;;;;;;5039245;28;20040;-74
2021/07/13 12:19:14;;;;;;;3.85;3.22;;;30.40;58.20;;;;;;5037363;28;20041;-74
2021/07/13 12:21:47;;;;;;;5.05;3.13;;;30.20;57.30;;;;;;5047071;28;20108;-74
2021/07/13 12:24:16;;;;;;;3.40;2.90;;;29.80;59.70;;;;;;5037362;28;20017;-74
2021/07/13 12:26:50;;;;;;;8.18;3.13;;;29.00;62.60;;;;;;5041358;28;20032;-75
2021/07/13 12:29:17;;;;;;;3.30;2.92;;;28.80;64.10;;;;;;5036217;28;20099;-75
2021/07/13 12:31:51;;;;;;;4.10;2.95;;;28.70;64.60;;;;;;5045849;28;20090;-74
2021/07/13 12:34:31;;;;;;;3.95;3.10;;;28.60;65.10;;;;;;5047873;28;20028;-74
2021/07/13 12:37:18;;;;;;;3.83;3.20;;;28.50;64.30;;;;;;5034980;28;20033;-75
2021/07/13 12:39:47;;;;;;;3.13;2.85;;;28.70;62.80;;;;;;5040604;28;20029;-77
2021/07/13 12:42:21;;;;;;;4.15;3.20;;;29.30;67.70;;;;;;5048740;28;20045;-77